createdAt,value
2018-11-20T00:01:25.736Z,6.66
2018-11-20T00:03:53.819Z,6.93
2018-11-20T00:06:21.049Z,7.38
2018-11-20T00:08:48.768Z,6.67
2018-11-20T00:11:15.505Z,6.70
2018-11-20T00:13:42.994Z,6.66
2018-11-20T00:16:10.943Z,6.33
2018-11-20T00:18:38.394Z,6.32
2018-11-20T00:21:05.755Z,6.33
2018-11-20T00:23:33.191Z,5.64
2018-11-20T00:26:00.795Z,5.62
2018-11-20T00:28:29.400Z,5.99
2018-11-20T00:30:57.197Z,5.96
2018-11-20T00:33:25.752Z,5.44
2018-11-20T00:35:53.723Z,5.16
2018-11-20T00:45:56.080Z,5.36
2018-11-20T00:48:23.890Z,5.53
2018-11-20T00:50:51.774Z,5.17
2018-11-20T00:53:19.108Z,5.36
2018-11-20T00:55:45.894Z,5.65
2018-11-20T00:58:13.616Z,5.85
2018-11-20T01:00:42.551Z,6.24
2018-11-20T01:03:10.471Z,6.08
2018-11-20T01:05:39.383Z,6.24
2018-11-20T01:08:06.576Z,6.19
2018-11-20T01:10:35.094Z,6.27
2018-11-20T01:13:02.832Z,5.94
2018-11-20T01:15:30.142Z,5.85
2018-11-20T01:20:30.317Z,5.99
2018-11-20T01:22:57.863Z,6.10
2018-11-20T01:25:25.227Z,6.01
2018-11-20T01:27:52.544Z,6.26
2018-11-20T01:30:19.638Z,6.22
2018-11-20T01:32:47.790Z,6.33
2018-11-20T01:35:14.887Z,6.42
2018-11-20T01:37:42.820Z,5.97
2018-11-20T01:40:10.882Z,5.94
2018-11-20T01:42:39.808Z,5.82
2018-11-20T01:45:07.014Z,6.05
2018-11-20T01:47:34.192Z,6.32
2018-11-20T01:50:01.441Z,6.25
2018-11-20T01:52:29.317Z,6.36
2018-11-20T01:54:55.796Z,6.60
2018-11-20T01:57:23.454Z,6.26
2018-11-20T01:59:51.430Z,5.65
2018-11-20T02:02:19.787Z,5.28
2018-11-20T02:04:47.433Z,5.59
2018-11-20T02:07:15.667Z,5.31
2018-11-20T02:09:44.056Z,4.83
2018-11-20T02:12:11.959Z,4.99
2018-11-20T02:14:38.441Z,5.36
2018-11-20T02:17:06.078Z,5.33
2018-11-20T02:19:33.951Z,5.52
2018-11-20T02:22:07.195Z,5.56
2018-11-20T02:24:35.818Z,5.75
2018-11-20T02:27:03.198Z,5.45
2018-11-20T02:29:31.339Z,5.20
2018-11-20T02:31:58.870Z,5.49
2018-11-20T02:34:26.607Z,6.03
2018-11-20T02:36:55.718Z,6.05
2018-11-20T02:39:24.326Z,6.01
2018-11-20T02:41:51.756Z,5.42
2018-11-20T02:46:52.099Z,4.89
2018-11-20T02:49:20.990Z,5.02
2018-11-20T02:51:49.509Z,5.27
2018-11-20T02:54:17.277Z,5.35
2018-11-20T02:56:43.750Z,5.57
2018-11-20T02:59:14.525Z,5.74
2018-11-20T03:01:42.060Z,5.60
2018-11-20T03:06:41.733Z,5.57
2018-11-20T03:09:10.348Z,5.84
2018-11-20T03:11:37.612Z,5.77
2018-11-20T03:14:06.323Z,5.90
2018-11-20T03:16:34.074Z,6.02
2018-11-20T03:19:02.059Z,6.12
2018-11-20T03:21:30.837Z,5.94
2018-11-20T03:23:57.870Z,5.84
2018-11-20T03:26:26.202Z,5.97
2018-11-20T03:28:54.163Z,6.25
2018-11-20T03:31:22.647Z,5.87
2018-11-20T03:33:50.618Z,5.71
2018-11-20T03:36:19.514Z,4.94
2018-11-20T03:38:48.436Z,5.13
2018-11-20T03:41:16.214Z,5.51
2018-11-20T03:43:45.341Z,5.78
2018-11-20T03:46:14.196Z,6.01
2018-11-20T03:48:41.657Z,6.12
2018-11-20T03:51:09.010Z,5.81
2018-11-20T03:56:08.621Z,6.18
2018-11-20T03:58:35.813Z,5.77
2018-11-20T04:01:03.966Z,5.47
2018-11-20T04:03:32.608Z,5.88
2018-11-20T04:06:01.267Z,6.07
2018-11-20T04:08:30.645Z,6.04
2018-11-20T04:10:59.122Z,6.06
2018-11-20T04:13:26.530Z,5.82
2018-11-20T04:15:53.610Z,5.78
2018-11-20T04:28:27.599Z,6.01
2018-11-20T04:30:55.523Z,6.57
2018-11-20T04:33:22.647Z,6.71
2018-11-20T04:35:50.251Z,6.93
2018-11-20T04:38:17.459Z,6.77
2018-11-20T04:40:44.681Z,6.69
2018-11-20T04:43:14.500Z,6.70
2018-11-20T04:45:41.717Z,6.27
2018-11-20T04:48:08.381Z,6.43
2018-11-20T04:50:36.416Z,6.89
2018-11-20T04:53:04.140Z,6.74
2018-11-20T04:55:31.433Z,6.99
2018-11-20T04:57:58.328Z,7.24
2018-11-20T05:00:25.724Z,7.02
2018-11-20T05:02:53.293Z,6.80
2018-11-20T05:05:20.676Z,7.22
2018-11-20T05:07:48.864Z,7.05
2018-11-20T05:10:16.732Z,7.13
2018-11-20T05:12:46.846Z,6.96
2018-11-20T05:15:16.506Z,6.68
2018-11-20T05:17:45.021Z,6.35
2018-11-20T05:20:12.240Z,6.55
2018-11-20T05:22:43.174Z,6.25
2018-11-20T05:25:11.800Z,6.57
2018-11-20T05:27:39.058Z,6.67
2018-11-20T05:30:06.524Z,6.82
2018-11-20T05:32:33.585Z,6.84
2018-11-20T05:35:00.882Z,6.74
2018-11-20T05:37:27.901Z,6.85
2018-11-20T05:39:55.891Z,6.78
2018-11-20T05:42:23.419Z,6.82
2018-11-20T05:44:51.255Z,6.49
2018-11-20T05:47:18.210Z,6.66
2018-11-20T05:49:45.381Z,6.83
2018-11-20T05:52:13.236Z,6.51
2018-11-20T05:54:40.718Z,6.54
2018-11-20T05:57:07.720Z,6.63
2018-11-20T05:59:36.294Z,7.06
2018-11-20T06:02:03.691Z,6.72
2018-11-20T06:04:31.007Z,6.89
2018-11-20T06:06:58.310Z,7.09
2018-11-20T06:09:26.269Z,6.71
2018-11-20T06:11:54.019Z,6.67
2018-11-20T06:14:20.486Z,6.85
2018-11-20T06:16:47.486Z,6.83
2018-11-20T06:19:14.344Z,7.14
2018-11-20T06:21:42.902Z,7.23
2018-11-20T06:24:10.046Z,6.62
2018-11-20T06:26:38.102Z,6.58
2018-11-20T06:29:05.303Z,6.98
2018-11-20T06:31:33.278Z,7.13
2018-11-20T06:34:01.052Z,7.13
2018-11-20T06:36:28.236Z,6.86
2018-11-20T06:38:56.139Z,6.84
2018-11-20T06:41:23.600Z,6.91
2018-11-20T06:43:54.113Z,7.25
2018-11-20T06:46:22.865Z,7.15
2018-11-20T06:51:22.051Z,6.74
2018-11-20T06:53:49.964Z,6.79
2018-11-20T06:56:17.791Z,7.08
2018-11-20T06:58:46.264Z,6.98
2018-11-20T07:01:12.739Z,7.03
2018-11-20T07:06:12.340Z,7.15
2018-11-20T07:08:40.042Z,7.25
2018-11-20T07:11:08.528Z,7.07
2018-11-20T07:13:35.852Z,7.24
2018-11-20T07:16:03.498Z,6.78
2018-11-20T07:18:30.915Z,7.01
2018-11-20T07:20:58.636Z,7.26
2018-11-20T07:23:26.488Z,6.95
2018-11-20T07:25:55.409Z,6.88
2018-11-20T07:28:26.086Z,6.83
2018-11-20T07:30:53.381Z,6.85
2018-11-20T07:33:21.108Z,7.08
2018-11-20T07:35:48.123Z,7.19
2018-11-20T07:38:15.265Z,7.02
2018-11-20T07:40:42.441Z,7.17
2018-11-20T07:43:09.237Z,7.02
2018-11-20T07:45:37.810Z,7.05
2018-11-20T07:48:05.266Z,6.76
2018-11-20T07:50:33.416Z,6.56
2018-11-20T07:52:59.980Z,7.07
2018-11-20T07:55:27.476Z,7.23
2018-11-20T07:57:54.789Z,7.02
2018-11-20T08:00:23.372Z,6.91
2018-11-20T08:02:51.111Z,6.88
2018-11-20T08:05:19.012Z,7.02
2018-11-20T08:07:46.071Z,7.05
2018-11-20T08:10:14.266Z,7.06
2018-11-20T08:12:41.712Z,6.79
2018-11-20T08:15:08.980Z,6.91
2018-11-20T08:20:09.396Z,6.82
2018-11-20T08:22:37.297Z,6.89
2018-11-20T08:25:04.680Z,6.67
2018-11-20T08:27:31.283Z,6.76
2018-11-20T08:29:58.754Z,6.74
2018-11-20T08:32:25.426Z,6.79
2018-11-20T08:34:56.082Z,6.72
2018-11-20T08:37:24.791Z,6.89
2018-11-20T08:39:52.242Z,6.67
2018-11-20T08:42:19.517Z,6.72
2018-11-20T08:47:19.325Z,6.89
2018-11-20T08:49:46.446Z,6.83
2018-11-20T08:52:13.829Z,6.71
2018-11-20T08:54:48.713Z,6.81
2018-11-20T08:57:16.538Z,6.76
2018-11-20T08:59:44.468Z,6.82
2018-11-20T09:02:12.499Z,6.82
2018-11-20T09:04:43.779Z,6.92
2018-11-20T09:07:10.859Z,6.84
2018-11-20T09:09:38.271Z,6.74
2018-11-20T09:12:05.759Z,6.63
2018-11-20T09:14:33.821Z,6.35
2018-11-20T09:17:02.254Z,6.18
2018-11-20T09:19:29.411Z,6.42
2018-11-20T09:21:57.226Z,6.50
2018-11-20T09:24:24.258Z,6.66
2018-11-20T09:26:51.564Z,6.74
2018-11-20T09:29:19.392Z,6.86
2018-11-20T09:31:48.120Z,6.98
2018-11-20T09:34:16.354Z,7.11
2018-11-20T09:36:43.667Z,7.16
2018-11-20T09:39:11.029Z,6.82
2018-11-20T09:41:39.005Z,6.68
2018-11-20T09:44:06.132Z,6.84
2018-11-20T09:46:33.183Z,6.85
2018-11-20T09:49:00.147Z,6.84
2018-11-20T09:51:28.001Z,6.77
2018-11-20T09:53:55.137Z,7.07
2018-11-20T09:56:22.989Z,7.38
2018-11-20T09:58:49.776Z,7.75
2018-11-20T10:01:17.290Z,7.84
2018-11-20T10:03:45.621Z,7.99
2018-11-20T10:06:13.940Z,8.49
2018-11-20T10:08:41.715Z,8.75
2018-11-20T10:11:09.870Z,8.71
2018-11-20T10:13:36.966Z,8.70
2018-11-20T10:16:04.229Z,8.35
2018-11-20T10:18:32.279Z,8.62
2018-11-20T10:20:59.943Z,8.84
2018-11-20T10:23:27.864Z,9.11
2018-11-20T10:25:56.042Z,8.80
2018-11-20T10:28:23.843Z,8.81
2018-11-20T10:30:51.616Z,8.52
2018-11-20T10:33:18.762Z,8.57
2018-11-20T10:35:49.151Z,8.60
2018-11-20T10:38:15.941Z,8.78
2018-11-20T10:40:43.950Z,8.58
2018-11-20T10:43:12.646Z,8.70
2018-11-20T10:48:16.300Z,8.62
2018-11-20T10:50:43.446Z,8.51
2018-11-20T10:53:11.018Z,8.40
2018-11-20T10:55:43.131Z,8.56
2018-11-20T10:58:11.414Z,8.62
2018-11-20T11:00:40.957Z,8.54
2018-11-20T11:03:09.070Z,8.47
2018-11-20T11:05:37.991Z,8.39
2018-11-20T11:08:06.143Z,8.54
2018-11-20T11:10:33.392Z,8.61
2018-11-20T11:13:00.977Z,8.69
2018-11-20T11:15:28.128Z,8.74
2018-11-20T11:17:55.653Z,8.62
2018-11-20T11:20:23.875Z,8.60
2018-11-20T11:22:51.360Z,8.63
2018-11-20T11:25:19.122Z,8.26
2018-11-20T11:27:47.698Z,8.47
2018-11-20T11:30:15.639Z,8.29
2018-11-20T11:32:42.912Z,8.11
2018-11-20T11:35:10.165Z,7.97
2018-11-20T11:37:38.349Z,8.26
2018-11-20T11:40:05.540Z,8.82
2018-11-20T11:42:35.764Z,8.80
2018-11-20T11:45:03.035Z,8.44
2018-11-20T11:47:30.323Z,8.01
2018-11-20T11:49:58.683Z,8.51
2018-11-20T11:52:26.078Z,8.76
2018-11-20T11:54:53.716Z,8.69
2018-11-20T11:57:21.136Z,8.49
2018-11-20T11:59:48.248Z,8.69
2018-11-20T18:08:38.337Z,7.13
2018-11-20T18:11:06.483Z,7.11
2018-11-20T18:13:32.932Z,7.31
2018-11-20T18:15:59.701Z,7.35
2018-11-20T18:18:26.163Z,7.45
2018-11-20T18:20:54.599Z,7.52
2018-11-20T18:23:23.783Z,7.54
2018-11-20T18:28:37.553Z,7.72
2018-11-20T18:31:06.460Z,7.88
2018-11-20T18:33:35.479Z,7.98
2018-11-20T18:36:04.683Z,8.01
2018-11-20T18:38:31.121Z,7.76
2018-11-20T18:41:00.502Z,7.71
2018-11-20T18:43:29.406Z,7.79
2018-11-20T18:46:00.385Z,7.61
2018-11-20T18:48:29.516Z,7.60
2018-11-20T18:50:58.467Z,7.62
2018-11-20T18:53:27.225Z,7.96
2018-11-20T18:55:53.696Z,8.26
2018-11-20T18:58:20.151Z,7.80
2018-11-20T19:00:47.438Z,7.68
2018-11-20T19:03:14.135Z,7.68
2018-11-20T19:05:40.591Z,7.77
2018-11-20T19:08:07.394Z,7.87
2018-11-20T19:10:33.802Z,8.04
2018-11-20T19:13:00.596Z,8.32
2018-11-20T19:15:29.255Z,8.36
2018-11-20T19:17:55.949Z,8.25
2018-11-20T19:20:30.589Z,8.15
2018-11-20T19:22:57.698Z,8.11
2018-11-20T19:25:26.347Z,7.94
2018-11-20T19:27:52.813Z,7.98
2018-11-20T19:30:22.545Z,8.09
2018-11-20T19:32:51.485Z,7.77
2018-11-20T19:35:17.883Z,7.80
2018-11-20T19:37:44.395Z,7.66
2018-11-20T19:40:10.783Z,7.56
2018-11-20T19:42:37.222Z,7.72
2018-11-20T19:45:06.965Z,7.79
2018-11-20T19:47:36.209Z,7.55
2018-11-20T19:50:03.389Z,7.74
2018-11-20T19:52:32.503Z,8.02
2018-11-20T19:55:04.080Z,7.81
2018-11-20T19:57:33.079Z,7.64
2018-11-20T20:00:02.299Z,7.89
2018-11-20T20:02:36.475Z,7.76
2018-11-20T20:04:59.649Z,7.86
2018-11-20T20:07:26.407Z,7.76
2018-11-20T20:09:56.378Z,7.75
2018-11-20T20:12:23.255Z,8.15
2018-11-20T20:14:52.116Z,8.15
2018-11-20T20:17:20.833Z,8.03
2018-11-20T20:19:47.642Z,8.03
2018-11-20T20:22:16.592Z,8.03
2018-11-20T20:24:43.896Z,7.91
2018-11-20T20:27:12.568Z,7.93
2018-11-20T20:29:41.519Z,8.14
2018-11-20T20:32:08.242Z,8.03
2018-11-20T20:34:34.987Z,7.98
2018-11-20T20:37:05.038Z,8.05
2018-11-20T20:39:31.829Z,8.17
2018-11-20T20:42:00.797Z,7.81
2018-11-20T20:44:27.515Z,7.87
2018-11-20T20:46:54.272Z,7.83
2018-11-20T20:49:22.877Z,7.94
2018-11-20T20:51:49.670Z,7.95
2018-11-20T20:54:18.195Z,7.86
2018-11-20T20:56:46.463Z,8.06
2018-11-20T20:59:15.361Z,8.07
2018-11-20T21:01:42.062Z,7.93
2018-11-20T21:04:10.866Z,7.61
2018-11-20T21:06:37.318Z,7.62
2018-11-20T21:09:06.223Z,7.96
2018-11-20T21:11:32.656Z,7.82
2018-11-20T21:14:00.117Z,7.60
2018-11-20T21:16:26.580Z,7.72
2018-11-20T21:18:55.579Z,7.93
2018-11-20T21:21:26.164Z,8.09
2018-11-20T21:23:52.600Z,7.86
2018-11-20T21:26:21.511Z,7.58
2018-11-20T21:28:47.961Z,7.47
2018-11-20T21:31:14.698Z,7.59
2018-11-20T21:33:43.603Z,7.67
2018-11-20T21:36:12.355Z,7.72
2018-11-20T21:38:41.284Z,7.59
2018-11-20T21:41:07.749Z,7.52
2018-11-20T21:43:36.819Z,7.29
2018-11-20T21:46:03.264Z,7.19
2018-11-20T21:48:32.961Z,7.16
2018-11-20T21:51:13.904Z,7.26
2018-11-20T21:53:43.378Z,7.56
2018-11-20T21:56:09.786Z,7.77
2018-11-20T21:58:37.126Z,7.68
2018-11-20T22:01:05.295Z,7.73
2018-11-20T22:03:31.808Z,7.63
2018-11-20T22:06:00.498Z,7.59
2018-11-20T22:08:29.895Z,7.68
2018-11-20T22:11:03.858Z,7.67
2018-11-20T22:13:30.735Z,7.83
2018-11-20T22:15:59.387Z,7.85
2018-11-20T22:18:26.166Z,7.75
2018-11-20T22:20:55.064Z,7.61
2018-11-20T22:23:24.027Z,8.02
2018-11-20T22:25:50.797Z,7.73
2018-11-20T22:28:19.536Z,7.79
2018-11-20T22:30:48.465Z,7.74
2018-11-20T22:33:17.465Z,7.91
2018-11-20T22:35:48.024Z,7.66
2018-11-20T22:38:14.443Z,7.59
2018-11-20T22:40:45.256Z,7.85
2018-11-20T22:43:11.722Z,8.16
2018-11-20T22:45:40.386Z,7.92
2018-11-20T22:48:09.094Z,7.67
2018-11-20T22:50:35.586Z,7.68
2018-11-20T22:53:04.547Z,7.46
2018-11-20T22:55:33.231Z,7.54
2018-11-20T22:58:01.369Z,7.45
2018-11-20T23:00:27.840Z,7.63
2018-11-20T23:02:56.798Z,7.97
2018-11-20T23:05:25.778Z,7.87
2018-11-20T23:07:52.163Z,7.91
2018-11-20T23:10:20.810Z,8.16
2018-11-20T23:12:57.336Z,8.23
2018-11-20T23:15:24.534Z,8.38
2018-11-20T23:17:50.990Z,8.12
2018-11-20T23:20:17.749Z,8.42
2018-11-20T23:22:45.908Z,8.41
2018-11-20T23:25:14.619Z,8.46
2018-11-20T23:27:41.376Z,8.21
2018-11-20T23:30:10.838Z,7.97
2018-11-20T23:32:44.753Z,7.85
2018-11-20T23:35:13.759Z,7.65
2018-11-20T23:37:42.652Z,7.55
2018-11-20T23:40:09.198Z,7.55
2018-11-20T23:45:07.943Z,7.73
2018-11-20T23:47:34.663Z,7.86
2018-11-20T23:50:01.369Z,7.78
2018-11-20T23:52:38.570Z,7.92
2018-11-20T23:55:04.995Z,7.85
2018-11-20T23:57:33.845Z,7.83
